TFM - Tactical Decision Aid (Experimental) INFO Settings
ID: Runway Winds: CIG/VIS Threshold: METAR Board: Map:

KIAD - Washington-Dulles Intl

Updated at: 1837 UTC 08 Feb 2016
Latest TAF at: 1740 UTC 08 Feb 2016

TAF Board

Time1752Z08/19Z08/20Z08/21Z08/22Z08/23Z09/00Z09/01Z09/02Z09/03Z09/04Z09/05Z09/06Z09/07Z
TypeOBSPRVLPRVLPRVLPRVLPRVLPRVLPRVLPRVLPRVLPRVLPRVLPRVLPRVL
VIS10>6>6>6>6>63332220.50.5
CIG20020020020020020025252520202088
CoverBKNBKNBKNBKNBKNBKNOVCOVCOVCOVCOVCOVCOVCOVC
FltCatVFRVFRVFRVFRVFRVFRMVFRMVFRMVFRIFRIFRIFRLIFRLIFR
WX-------------RA-RA-RA-RA -SN-RA -SN-RA -SNSNSN
WDir190120120120120120120120120120120120100100
WSpd65555566666655
WGst----------------------------
TAF
KIAD 081740Z 0818/0924 12005KT P6SM BKN200
  FM090000 12006KT 3SM -RA OVC025
  FM090300 12006KT 2SM -RASN OVC020
  FM090600 10005KT 1/2SM SN OVC008
  FM091100 04005KT 1SM -SN OVC008
  FM091500 34005KT 1/2SM SN OVC008
  FM092100 30007KT 2SM -SNRA OVC015


METAR
KIAD 081752Z 19006KT 10SM BKN200 07/M04 A2971 RMK AO2 SLP061 T00721039 10072 21039 58026

TAF/METAR Board Legend

Potential Impact
  None Marginal Slight Moderate High
Visibility (sm) >5 3≤X≤5 1≤X<3 0.5≤X<1 <0.5
Ceiling (100 ft) >30 10≤X≤30 4≤X<10 2≤X<4 <2
Wind Speed (kt) <10 10≤X<20 20≤X<30 ≥30
Wind Gust (kt) <15 15≤X<25 25≤X<35 ≥35
Weather No Wx Reported VCTS -TS,-FZRA TS,FZRA +TS,+FZRA